sensor_id;sensor_type;location;lat;lon;timestamp;temperature;humidity
296;DHT22;132;48.770;9.200;2023-03-02T00:07:13;1.70;1.00
296;DHT22;132;48.770;9.200;2023-03-02T00:09:41;1.60;1.00
296;DHT22;132;48.770;9.200;2023-03-02T00:12:10;1.60;1.00
296;DHT22;132;48.770;9.200;2023-03-02T00:14:37;1.50;1.00
296;DHT22;132;48.770;9.200;2023-03-02T00:17:04;1.50;1.00
296;DHT22;132;48.770;9.200;2023-03-02T00:19:31;1.50;1.00
296;DHT22;132;48.770;9.200;2023-03-02T00:21:57;1.50;1.00
296;DHT22;132;48.770;9.200;2023-03-02T00:24:24;1.30;1.00
296;DHT22;132;48.770;9.200;2023-03-02T00:26:50;1.40;1.00
296;DHT22;132;48.770;9.200;2023-03-02T00:29:16;1.40;1.00
296;DHT22;132;48.770;9.200;2023-03-02T00:31:43;1.40;1.00
296;DHT22;132;48.770;9.200;2023-03-02T00:34:09;1.40;1.00
296;DHT22;132;48.770;9.200;2023-03-02T00:36:36;1.40;1.00
296;DHT22;132;48.770;9.200;2023-03-02T00:39:02;1.40;1.00
296;DHT22;132;48.770;9.200;2023-03-02T00:41:29;1.50;1.00
296;DHT22;132;48.770;9.200;2023-03-02T00:43:56;1.50;1.00
296;DHT22;132;48.770;9.200;2023-03-02T00:46:23;1.40;1.00
296;DHT22;132;48.770;9.200;2023-03-02T00:48:51;2.00;1.00
296;DHT22;132;48.770;9.200;2023-03-02T00:51:18;1.40;1.00
296;DHT22;132;48.770;9.200;2023-03-02T00:53:45;1.70;1.00
296;DHT22;132;48.770;9.200;2023-03-02T00:56:11;1.40;1.00
296;DHT22;132;48.770;9.200;2023-03-02T00:58:43;1.40;1.00
296;DHT22;132;48.770;9.200;2023-03-02T01:01:11;1.30;1.00
296;DHT22;132;48.770;9.200;2023-03-02T01:03:42;1.30;1.00
296;DHT22;132;48.770;9.200;2023-03-02T01:06:19;1.40;1.00
296;DHT22;132;48.770;9.200;2023-03-02T01:08:46;1.30;1.00
296;DHT22;132;48.770;9.200;2023-03-02T01:11:18;1.10;1.00
296;DHT22;132;48.770;9.200;2023-03-02T01:13:45;1.20;1.00
296;DHT22;132;48.770;9.200;2023-03-02T01:16:12;1.20;1.00
296;DHT22;132;48.770;9.200;2023-03-02T01:18:39;1.20;1.00
296;DHT22;132;48.770;9.200;2023-03-02T01:21:13;1.20;1.00
296;DHT22;132;48.770;9.200;2023-03-02T01:23:40;1.10;1.00
296;DHT22;132;48.770;9.200;2023-03-02T01:26:07;1.10;1.00
296;DHT22;132;48.770;9.200;2023-03-02T01:28:33;1.10;1.00
296;DHT22;132;48.770;9.200;2023-03-02T01:31:00;1.00;1.00
296;DHT22;132;48.770;9.200;2023-03-02T01:33:29;1.00;1.00
296;DHT22;132;48.770;9.200;2023-03-02T01:35:55;1.00;1.00
296;DHT22;132;48.770;9.200;2023-03-02T01:38:21;1.00;1.00
296;DHT22;132;48.770;9.200;2023-03-02T01:44:52;0.90;1.00
296;DHT22;132;48.770;9.200;2023-03-02T01:47:30;0.80;1.00
296;DHT22;132;48.770;9.200;2023-03-02T01:50:20;0.80;1.00
296;DHT22;132;48.770;9.200;2023-03-02T01:52:52;0.80;1.00
296;DHT22;132;48.770;9.200;2023-03-02T01:55:23;0.70;1.00
296;DHT22;132;48.770;9.200;2023-03-02T01:57:52;0.70;1.00
296;DHT22;132;48.770;9.200;2023-03-02T02:00:26;0.70;1.00
296;DHT22;132;48.770;9.200;2023-03-02T02:02:55;0.70;1.00
296;DHT22;132;48.770;9.200;2023-03-02T02:05:36;0.70;1.00
296;DHT22;132;48.770;9.200;2023-03-02T02:08:06;0.80;1.00
296;DHT22;132;48.770;9.200;2023-03-02T02:10:33;0.60;1.00
296;DHT22;132;48.770;9.200;2023-03-02T02:13:00;0.60;1.00
296;DHT22;132;48.770;9.200;2023-03-02T02:15:26;0.60;1.00
296;DHT22;132;48.770;9.200;2023-03-02T02:17:53;0.60;1.00
296;DHT22;132;48.770;9.200;2023-03-02T02:20:42;0.60;1.00
296;DHT22;132;48.770;9.200;2023-03-02T02:28:22;0.50;1.00
296;DHT22;132;48.770;9.200;2023-03-02T02:31:01;0.50;1.00
296;DHT22;132;48.770;9.200;2023-03-02T02:33:29;0.80;1.00
296;DHT22;132;48.770;9.200;2023-03-02T02:36:03;0.60;1.00
296;DHT22;132;48.770;9.200;2023-03-02T02:38:32;0.60;1.00
296;DHT22;132;48.770;9.200;2023-03-02T02:41:02;0.50;1.00
296;DHT22;132;48.770;9.200;2023-03-02T02:43:33;0.40;1.00
296;DHT22;132;48.770;9.200;2023-03-02T02:46:00;0.50;1.00
296;DHT22;132;48.770;9.200;2023-03-02T02:48:29;0.50;1.00
296;DHT22;132;48.770;9.200;2023-03-02T02:50:57;0.40;1.00
296;DHT22;132;48.770;9.200;2023-03-02T02:53:34;0.50;1.00
296;DHT22;132;48.770;9.200;2023-03-02T02:56:04;0.50;1.00
296;DHT22;132;48.770;9.200;2023-03-02T02:58:44;0.50;1.00
296;DHT22;132;48.770;9.200;2023-03-02T03:01:13;0.40;1.00
296;DHT22;132;48.770;9.200;2023-03-02T03:03:50;0.40;1.00
296;DHT22;132;48.770;9.200;2023-03-02T03:06:22;0.50;1.00
296;DHT22;132;48.770;9.200;2023-03-02T03:08:54;0.40;1.00
296;DHT22;132;48.770;9.200;2023-03-02T03:11:30;0.40;1.00
296;DHT22;132;48.770;9.200;2023-03-02T03:14:12;0.40;1.00
296;DHT22;132;48.770;9.200;2023-03-02T03:16:41;0.40;1.00
296;DHT22;132;48.770;9.200;2023-03-02T03:19:16;0.90;1.00
296;DHT22;132;48.770;9.200;2023-03-02T03:21:45;0.40;1.00
296;DHT22;132;48.770;9.200;2023-03-02T03:24:13;0.40;1.00
296;DHT22;132;48.770;9.200;2023-03-02T03:26:39;0.40;1.00
296;DHT22;132;48.770;9.200;2023-03-02T03:29:06;0.40;1.00
296;DHT22;132;48.770;9.200;2023-03-02T03:31:33;0.30;1.00
296;DHT22;132;48.770;9.200;2023-03-02T03:34:01;0.40;1.00
296;DHT22;132;48.770;9.200;2023-03-02T03:36:32;0.30;1.00
296;DHT22;132;48.770;9.200;2023-03-02T03:38:59;0.30;1.00
296;DHT22;132;48.770;9.200;2023-03-02T03:41:26;0.30;1.00
296;DHT22;132;48.770;9.200;2023-03-02T03:43:53;0.30;1.00
296;DHT22;132;48.770;9.200;2023-03-02T03:46:20;0.30;1.00
296;DHT22;132;48.770;9.200;2023-03-02T03:48:47;0.30;1.00
296;DHT22;132;48.770;9.200;2023-03-02T03:51:14;0.30;1.00
296;DHT22;132;48.770;9.200;2023-03-02T03:53:41;0.30;1.00
296;DHT22;132;48.770;9.200;2023-03-02T03:56:07;0.40;1.00
296;DHT22;132;48.770;9.200;2023-03-02T03:58:34;0.10;1.00
296;DHT22;132;48.770;9.200;2023-03-02T04:01:01;0.30;1.00
296;DHT22;132;48.770;9.200;2023-03-02T04:03:27;0.30;1.00
296;DHT22;132;48.770;9.200;2023-03-02T04:05:54;0.30;1.00
296;DHT22;132;48.770;9.200;2023-03-02T04:08:21;0.20;1.00
296;DHT22;132;48.770;9.200;2023-03-02T04:10:47;0.20;1.00
296;DHT22;132;48.770;9.200;2023-03-02T04:13:14;0.20;1.00
296;DHT22;132;48.770;9.200;2023-03-02T04:15:40;0.30;1.00
296;DHT22;132;48.770;9.200;2023-03-02T04:18:07;0.90;1.00
296;DHT22;132;48.770;9.200;2023-03-02T04:20:35;0.30;1.00
296;DHT22;132;48.770;9.200;2023-03-02T04:23:02;0.20;1.00
296;DHT22;132;48.770;9.200;2023-03-02T04:25:29;0.30;1.00
296;DHT22;132;48.770;9.200;2023-03-02T04:28:02;0.20;1.00
296;DHT22;132;48.770;9.200;2023-03-02T04:30:33;0.20;1.00
296;DHT22;132;48.770;9.200;2023-03-02T04:33:00;0.30;1.00
296;DHT22;132;48.770;9.200;2023-03-02T04:35:28;0.30;1.00
296;DHT22;132;48.770;9.200;2023-03-02T04:37:54;0.30;1.00
296;DHT22;132;48.770;9.200;2023-03-02T04:40:21;0.30;1.00
296;DHT22;132;48.770;9.200;2023-03-02T04:42:48;0.30;1.00
296;DHT22;132;48.770;9.200;2023-03-02T04:45:14;0.50;1.00
296;DHT22;132;48.770;9.200;2023-03-02T04:47:41;0.50;1.00
296;DHT22;132;48.770;9.200;2023-03-02T04:50:09;0.30;1.00
296;DHT22;132;48.770;9.200;2023-03-02T04:52:36;0.40;1.00
296;DHT22;132;48.770;9.200;2023-03-02T04:55:03;0.30;1.00
296;DHT22;132;48.770;9.200;2023-03-02T04:57:30;0.40;1.00
296;DHT22;132;48.770;9.200;2023-03-02T04:59:56;0.40;1.00
296;DHT22;132;48.770;9.200;2023-03-02T05:02:23;0.30;1.00
296;DHT22;132;48.770;9.200;2023-03-02T05:04:49;0.50;1.00
296;DHT22;132;48.770;9.200;2023-03-02T05:07:15;0.40;1.00
296;DHT22;132;48.770;9.200;2023-03-02T05:09:42;0.50;1.00
296;DHT22;132;48.770;9.200;2023-03-02T05:12:08;0.50;1.00
296;DHT22;132;48.770;9.200;2023-03-02T05:14:34;0.60;1.00
296;DHT22;132;48.770;9.200;2023-03-02T05:17:01;0.60;1.00
296;DHT22;132;48.770;9.200;2023-03-02T05:19:27;0.70;1.00
296;DHT22;132;48.770;9.200;2023-03-02T05:21:53;0.70;1.00
296;DHT22;132;48.770;9.200;2023-03-02T05:24:21;0.80;1.00
296;DHT22;132;48.770;9.200;2023-03-02T05:26:47;0.70;1.00
296;DHT22;132;48.770;9.200;2023-03-02T05:29:14;0.90;1.00
296;DHT22;132;48.770;9.200;2023-03-02T05:31:42;0.90;1.00
296;DHT22;132;48.770;9.200;2023-03-02T05:34:11;1.00;1.00
296;DHT22;132;48.770;9.200;2023-03-02T05:36:38;1.00;1.00
296;DHT22;132;48.770;9.200;2023-03-02T05:39:06;1.10;1.00
296;DHT22;132;48.770;9.200;2023-03-02T05:41:33;1.10;1.00
296;DHT22;132;48.770;9.200;2023-03-02T05:44:00;1.20;1.00
296;DHT22;132;48.770;9.200;2023-03-02T05:46:26;1.20;1.00
296;DHT22;132;48.770;9.200;2023-03-02T05:48:52;1.20;1.00
296;DHT22;132;48.770;9.200;2023-03-02T05:51:19;1.20;1.00
296;DHT22;132;48.770;9.200;2023-03-02T05:53:45;1.20;1.00
296;DHT22;132;48.770;9.200;2023-03-02T05:56:12;1.20;1.00
296;DHT22;132;48.770;9.200;2023-03-02T05:58:38;0.90;1.00
296;DHT22;132;48.770;9.200;2023-03-02T06:01:09;1.30;1.00
296;DHT22;132;48.770;9.200;2023-03-02T06:03:36;1.30;1.00
296;DHT22;132;48.770;9.200;2023-03-02T06:06:02;1.40;1.00
296;DHT22;132;48.770;9.200;2023-03-02T06:08:29;1.40;1.00
296;DHT22;132;48.770;9.200;2023-03-02T06:10:55;1.40;1.00
296;DHT22;132;48.770;9.200;2023-03-02T06:13:22;1.40;1.00
296;DHT22;132;48.770;9.200;2023-03-02T06:15:48;1.40;1.00
296;DHT22;132;48.770;9.200;2023-03-02T06:18:15;1.80;1.00
296;DHT22;132;48.770;9.200;2023-03-02T06:20:41;1.50;1.00
296;DHT22;132;48.770;9.200;2023-03-02T06:23:08;1.50;1.00
296;DHT22;132;48.770;9.200;2023-03-02T06:25:36;1.50;1.00
296;DHT22;132;48.770;9.200;2023-03-02T06:28:03;1.50;1.00
296;DHT22;132;48.770;9.200;2023-03-02T06:30:29;1.50;1.00
296;DHT22;132;48.770;9.200;2023-03-02T06:32:56;1.60;1.00
296;DHT22;132;48.770;9.200;2023-03-02T06:35:22;1.60;1.00
296;DHT22;132;48.770;9.200;2023-03-02T06:37:49;1.50;1.00
296;DHT22;132;48.770;9.200;2023-03-02T06:40:15;1.60;1.00
296;DHT22;132;48.770;9.200;2023-03-02T06:42:42;2.00;1.00
296;DHT22;132;48.770;9.200;2023-03-02T06:45:09;1.70;1.00
296;DHT22;132;48.770;9.200;2023-03-02T06:47:35;1.70;1.00
296;DHT22;132;48.770;9.200;2023-03-02T06:50:03;2.20;1.00
296;DHT22;132;48.770;9.200;2023-03-02T06:52:30;1.70;1.00
296;DHT22;132;48.770;9.200;2023-03-02T06:54:56;1.70;1.00
296;DHT22;132;48.770;9.200;2023-03-02T06:57:23;1.50;1.00
296;DHT22;132;48.770;9.200;2023-03-02T06:59:49;1.80;1.00
296;DHT22;132;48.770;9.200;2023-03-02T07:02:15;3.20;1.00
296;DHT22;132;48.770;9.200;2023-03-02T07:04:42;1.70;1.00
296;DHT22;132;48.770;9.200;2023-03-02T07:07:08;1.80;1.00
296;DHT22;132;48.770;9.200;2023-03-02T07:09:34;1.80;1.00
296;DHT22;132;48.770;9.200;2023-03-02T07:12:01;1.70;1.00
296;DHT22;132;48.770;9.200;2023-03-02T07:14:27;1.90;1.00
296;DHT22;132;48.770;9.200;2023-03-02T07:16:54;1.90;1.00
296;DHT22;132;48.770;9.200;2023-03-02T07:19:22;1.90;1.00
296;DHT22;132;48.770;9.200;2023-03-02T07:21:48;1.90;1.00
296;DHT22;132;48.770;9.200;2023-03-02T07:24:15;2.00;1.00
296;DHT22;132;48.770;9.200;2023-03-02T07:26:41;2.00;1.00
296;DHT22;132;48.770;9.200;2023-03-02T07:29:07;2.00;1.00
296;DHT22;132;48.770;9.200;2023-03-02T07:31:34;2.20;1.00
296;DHT22;132;48.770;9.200;2023-03-02T07:34:01;2.20;1.00
296;DHT22;132;48.770;9.200;2023-03-02T07:36:28;2.10;1.00
296;DHT22;132;48.770;9.200;2023-03-02T07:38:55;2.20;1.00
296;DHT22;132;48.770;9.200;2023-03-02T07:41:21;2.20;1.00
296;DHT22;132;48.770;9.200;2023-03-02T07:43:47;2.20;1.00
296;DHT22;132;48.770;9.200;2023-03-02T07:46:14;2.10;1.00
296;DHT22;132;48.770;9.200;2023-03-02T07:48:40;2.20;1.00
296;DHT22;132;48.770;9.200;2023-03-02T07:51:07;2.40;1.00
296;DHT22;132;48.770;9.200;2023-03-02T07:53:33;2.30;1.00
296;DHT22;132;48.770;9.200;2023-03-02T07:56:08;2.50;1.00
296;DHT22;132;48.770;9.200;2023-03-02T07:58:35;2.40;1.00
296;DHT22;132;48.770;9.200;2023-03-02T08:01:02;2.40;1.00
296;DHT22;132;48.770;9.200;2023-03-02T08:03:28;2.20;1.00
296;DHT22;132;48.770;9.200;2023-03-02T08:05:55;2.60;1.00
296;DHT22;132;48.770;9.200;2023-03-02T08:08:21;3.20;1.00
296;DHT22;132;48.770;9.200;2023-03-02T08:10:47;3.20;1.00
296;DHT22;132;48.770;9.200;2023-03-02T08:13:14;2.70;1.00
296;DHT22;132;48.770;9.200;2023-03-02T08:15:40;2.80;1.00
296;DHT22;132;48.770;9.200;2023-03-02T08:18:07;2.90;1.00
296;DHT22;132;48.770;9.200;2023-03-02T08:20:33;2.90;1.00
296;DHT22;132;48.770;9.200;2023-03-02T08:22:59;3.10;1.00
296;DHT22;132;48.770;9.200;2023-03-02T08:25:26;3.40;1.00
296;DHT22;132;48.770;9.200;2023-03-02T08:27:52;4.20;1.00
296;DHT22;132;48.770;9.200;2023-03-02T08:30:19;3.10;1.00
296;DHT22;132;48.770;9.200;2023-03-02T08:32:45;3.30;1.00
296;DHT22;132;48.770;9.200;2023-03-02T08:35:11;3.10;1.00
296;DHT22;132;48.770;9.200;2023-03-02T08:37:38;3.20;1.00
296;DHT22;132;48.770;9.200;2023-03-02T08:40:05;3.20;1.00
296;DHT22;132;48.770;9.200;2023-03-02T08:42:31;3.40;1.00
296;DHT22;132;48.770;9.200;2023-03-02T08:44:57;3.50;1.00
296;DHT22;132;48.770;9.200;2023-03-02T08:47:24;3.60;1.00
296;DHT22;132;48.770;9.200;2023-03-02T08:49:50;3.70;1.00
296;DHT22;132;48.770;9.200;2023-03-02T08:52:16;3.80;1.00
296;DHT22;132;48.770;9.200;2023-03-02T08:54:43;4.30;1.00
296;DHT22;132;48.770;9.200;2023-03-02T08:57:10;4.10;1.00
296;DHT22;132;48.770;9.200;2023-03-02T08:59:37;4.00;1.00
296;DHT22;132;48.770;9.200;2023-03-02T09:02:03;4.00;1.00
296;DHT22;132;48.770;9.200;2023-03-02T09:04:29;4.50;1.00
296;DHT22;132;48.770;9.200;2023-03-02T09:06:56;4.00;1.00
296;DHT22;132;48.770;9.200;2023-03-02T09:09:22;3.80;1.00
296;DHT22;132;48.770;9.200;2023-03-02T09:11:48;3.90;1.00
296;DHT22;132;48.770;9.200;2023-03-02T09:14:15;3.80;1.00
296;DHT22;132;48.770;9.200;2023-03-02T09:16:41;3.70;1.00
296;DHT22;132;48.770;9.200;2023-03-02T09:19:09;3.90;1.00
296;DHT22;132;48.770;9.200;2023-03-02T09:21:35;3.70;1.00
296;DHT22;132;48.770;9.200;2023-03-02T09:24:01;3.70;1.00
296;DHT22;132;48.770;9.200;2023-03-02T09:26:28;3.60;1.00
296;DHT22;132;48.770;9.200;2023-03-02T09:28:55;4.70;1.00
296;DHT22;132;48.770;9.200;2023-03-02T09:31:21;3.80;1.00
296;DHT22;132;48.770;9.200;2023-03-02T09:33:48;3.80;1.00
296;DHT22;132;48.770;9.200;2023-03-02T09:36:22;4.00;1.00
296;DHT22;132;48.770;9.200;2023-03-02T09:38:49;4.10;1.00
296;DHT22;132;48.770;9.200;2023-03-02T09:44:09;4.30;1.00
296;DHT22;132;48.770;9.200;2023-03-02T09:46:48;4.40;1.00
296;DHT22;132;48.770;9.200;2023-03-02T09:54:55;4.80;1.00
296;DHT22;132;48.770;9.200;2023-03-02T09:57:33;4.80;1.00
296;DHT22;132;48.770;9.200;2023-03-02T10:00:12;5.00;1.00
296;DHT22;132;48.770;9.200;2023-03-02T10:02:47;5.10;1.00
296;DHT22;132;48.770;9.200;2023-03-02T10:05:23;5.40;1.00
296;DHT22;132;48.770;9.200;2023-03-02T10:07:50;5.30;1.00
296;DHT22;132;48.770;9.200;2023-03-02T10:10:39;5.30;1.00
296;DHT22;132;48.770;9.200;2023-03-02T10:13:33;5.50;1.00
296;DHT22;132;48.770;9.200;2023-03-02T10:21:40;5.80;1.00
296;DHT22;132;48.770;9.200;2023-03-02T10:24:25;5.80;1.00
296;DHT22;132;48.770;9.200;2023-03-02T10:27:07;5.90;1.00
296;DHT22;132;48.770;9.200;2023-03-02T10:29:50;5.80;1.00
296;DHT22;132;48.770;9.200;2023-03-02T10:32:20;5.90;1.00
296;DHT22;132;48.770;9.200;2023-03-02T10:34:48;6.60;1.00
296;DHT22;132;48.770;9.200;2023-03-02T10:37:21;5.90;1.00
296;DHT22;132;48.770;9.200;2023-03-02T10:39:48;5.90;1.00
296;DHT22;132;48.770;9.200;2023-03-02T10:42:32;5.80;1.00
296;DHT22;132;48.770;9.200;2023-03-02T10:45:22;6.90;1.00
296;DHT22;132;48.770;9.200;2023-03-02T10:48:11;5.60;1.00
296;DHT22;132;48.770;9.200;2023-03-02T10:50:38;5.50;1.00
296;DHT22;132;48.770;9.200;2023-03-02T10:53:17;6.70;1.00
296;DHT22;132;48.770;9.200;2023-03-02T10:55:50;5.60;1.00
296;DHT22;132;48.770;9.200;2023-03-02T10:58:30;5.50;1.00
296;DHT22;132;48.770;9.200;2023-03-02T11:01:03;5.70;1.00
296;DHT22;132;48.770;9.200;2023-03-02T11:03:31;6.00;1.00
296;DHT22;132;48.770;9.200;2023-03-02T11:06:17;5.70;1.00
296;DHT22;132;48.770;9.200;2023-03-02T11:08:43;6.50;1.00
296;DHT22;132;48.770;9.200;2023-03-02T11:11:22;5.70;1.00
296;DHT22;132;48.770;9.200;2023-03-02T11:13:49;5.70;1.00
296;DHT22;132;48.770;9.200;2023-03-02T11:19:06;5.70;1.00
296;DHT22;132;48.770;9.200;2023-03-02T11:21:55;5.90;1.00
296;DHT22;132;48.770;9.200;2023-03-02T11:24:30;5.90;1.00
296;DHT22;132;48.770;9.200;2023-03-02T11:26:58;6.60;1.00
296;DHT22;132;48.770;9.200;2023-03-02T11:29:33;6.10;1.00
296;DHT22;132;48.770;9.200;2023-03-02T11:32:30;6.30;1.00
296;DHT22;132;48.770;9.200;2023-03-02T11:35:09;6.40;1.00
296;DHT22;132;48.770;9.200;2023-03-02T11:37:44;6.40;1.00
296;DHT22;132;48.770;9.200;2023-03-02T11:43:08;6.40;1.00
296;DHT22;132;48.770;9.200;2023-03-02T11:45:40;6.40;1.00
296;DHT22;132;48.770;9.200;2023-03-02T11:48:30;6.50;1.00
296;DHT22;132;48.770;9.200;2023-03-02T11:51:12;6.50;1.00
296;DHT22;132;48.770;9.200;2023-03-02T11:53:42;6.50;1.00
296;DHT22;132;48.770;9.200;2023-03-02T11:56:11;6.60;1.00
296;DHT22;132;48.770;9.200;2023-03-02T11:58:38;6.60;1.00
296;DHT22;132;48.770;9.200;2023-03-02T12:01:07;6.70;1.00
296;DHT22;132;48.770;9.200;2023-03-02T12:03:38;6.80;1.00
296;DHT22;132;48.770;9.200;2023-03-02T12:08:45;7.00;1.00
296;DHT22;132;48.770;9.200;2023-03-02T12:19:28;7.20;1.00
296;DHT22;132;48.770;9.200;2023-03-02T12:22:06;7.00;1.00
296;DHT22;132;48.770;9.200;2023-03-02T12:24:38;7.10;1.00
296;DHT22;132;48.770;9.200;2023-03-02T12:29:48;7.20;1.00
296;DHT22;132;48.770;9.200;2023-03-02T12:34:52;7.50;1.00
296;DHT22;132;48.770;9.200;2023-03-02T12:37:34;7.50;1.00
296;DHT22;132;48.770;9.200;2023-03-02T12:42:48;7.60;1.00
296;DHT22;132;48.770;9.200;2023-03-02T12:47:57;7.70;1.00
296;DHT22;132;48.770;9.200;2023-03-02T12:50:28;7.70;1.00
296;DHT22;132;48.770;9.200;2023-03-02T12:53:04;7.70;1.00
296;DHT22;132;48.770;9.200;2023-03-02T12:55:31;7.80;1.00
296;DHT22;132;48.770;9.200;2023-03-02T12:58:00;8.00;1.00
296;DHT22;132;48.770;9.200;2023-03-02T13:00:31;8.00;1.00
296;DHT22;132;48.770;9.200;2023-03-02T13:02:58;8.70;1.00
296;DHT22;132;48.770;9.200;2023-03-02T13:05:32;8.50;1.00
296;DHT22;132;48.770;9.200;2023-03-02T13:08:24;7.70;1.00
296;DHT22;132;48.770;9.200;2023-03-02T13:10:54;8.20;1.00
296;DHT22;132;48.770;9.200;2023-03-02T13:13:24;8.50;1.00
296;DHT22;132;48.770;9.200;2023-03-02T13:15:55;8.60;1.00
296;DHT22;132;48.770;9.200;2023-03-02T13:18:28;8.40;1.00
296;DHT22;132;48.770;9.200;2023-03-02T13:20:58;8.60;1.00
296;DHT22;132;48.770;9.200;2023-03-02T13:23:27;8.60;1.00
296;DHT22;132;48.770;9.200;2023-03-02T13:26:02;8.60;1.00
296;DHT22;132;48.770;9.200;2023-03-02T13:28:31;8.70;1.00
296;DHT22;132;48.770;9.200;2023-03-02T13:33:44;8.80;1.00
296;DHT22;132;48.770;9.200;2023-03-02T13:36:18;8.90;1.00
296;DHT22;132;48.770;9.200;2023-03-02T13:38:48;8.90;1.00
296;DHT22;132;48.770;9.200;2023-03-02T13:41:26;9.40;1.00
296;DHT22;132;48.770;9.200;2023-03-02T13:43:53;9.20;1.00
296;DHT22;132;48.770;9.200;2023-03-02T13:48:54;9.40;1.00
296;DHT22;132;48.770;9.200;2023-03-02T13:51:21;9.60;1.00
296;DHT22;132;48.770;9.200;2023-03-02T13:53:56;9.40;1.00
296;DHT22;132;48.770;9.200;2023-03-02T13:56:32;9.30;1.00
296;DHT22;132;48.770;9.200;2023-03-02T13:59:00;9.30;1.00
296;DHT22;132;48.770;9.200;2023-03-02T14:01:27;9.40;1.00
296;DHT22;132;48.770;9.200;2023-03-02T14:03:53;9.40;1.00
296;DHT22;132;48.770;9.200;2023-03-02T14:06:20;9.40;1.00
296;DHT22;132;48.770;9.200;2023-03-02T14:08:47;9.80;1.00
296;DHT22;132;48.770;9.200;2023-03-02T14:11:15;10.60;1.00
296;DHT22;132;48.770;9.200;2023-03-02T14:13:46;9.50;1.00
296;DHT22;132;48.770;9.200;2023-03-02T14:16:15;9.40;1.00
296;DHT22;132;48.770;9.200;2023-03-02T14:18:46;10.10;1.00
296;DHT22;132;48.770;9.200;2023-03-02T14:21:16;9.30;1.00
296;DHT22;132;48.770;9.200;2023-03-02T14:23:44;9.70;1.00
296;DHT22;132;48.770;9.200;2023-03-02T14:29:23;9.40;1.00
296;DHT22;132;48.770;9.200;2023-03-02T14:31:52;10.00;1.00
296;DHT22;132;48.770;9.200;2023-03-02T14:34:19;9.50;1.00
296;DHT22;132;48.770;9.200;2023-03-02T14:36:50;10.60;1.00
296;DHT22;132;48.770;9.200;2023-03-02T14:41:54;9.50;1.00
296;DHT22;132;48.770;9.200;2023-03-02T14:44:21;9.80;1.00
296;DHT22;132;48.770;9.200;2023-03-02T14:46:48;10.10;1.00
296;DHT22;132;48.770;9.200;2023-03-02T14:49:14;9.50;1.00
296;DHT22;132;48.770;9.200;2023-03-02T14:51:42;10.30;1.00
296;DHT22;132;48.770;9.200;2023-03-02T14:54:13;9.60;1.00
296;DHT22;132;48.770;9.200;2023-03-02T14:56:43;9.70;1.00
296;DHT22;132;48.770;9.200;2023-03-02T14:59:13;9.60;1.00
296;DHT22;132;48.770;9.200;2023-03-02T15:01:41;9.90;1.00
296;DHT22;132;48.770;9.200;2023-03-02T15:04:09;10.20;1.00
296;DHT22;132;48.770;9.200;2023-03-02T15:06:37;9.70;1.00
296;DHT22;132;48.770;9.200;2023-03-02T15:09:05;10.00;1.00
296;DHT22;132;48.770;9.200;2023-03-02T15:11:31;10.50;1.00
296;DHT22;132;48.770;9.200;2023-03-02T15:13:58;9.90;1.00
296;DHT22;132;48.770;9.200;2023-03-02T15:16:24;10.00;1.00
296;DHT22;132;48.770;9.200;2023-03-02T15:18:51;9.70;1.00
296;DHT22;132;48.770;9.200;2023-03-02T15:21:20;9.80;1.00
296;DHT22;132;48.770;9.200;2023-03-02T15:23:48;9.60;1.00
296;DHT22;132;48.770;9.200;2023-03-02T15:26:16;10.30;1.00
296;DHT22;132;48.770;9.200;2023-03-02T15:28:43;9.60;1.00
296;DHT22;132;48.770;9.200;2023-03-02T15:31:14;10.00;1.00
296;DHT22;132;48.770;9.200;2023-03-02T15:33:42;9.70;1.00
296;DHT22;132;48.770;9.200;2023-03-02T15:36:10;9.60;1.00
296;DHT22;132;48.770;9.200;2023-03-02T15:38:37;9.90;1.00
296;DHT22;132;48.770;9.200;2023-03-02T15:41:05;9.40;1.00
296;DHT22;132;48.770;9.200;2023-03-02T15:43:32;9.40;1.00
296;DHT22;132;48.770;9.200;2023-03-02T15:45:58;9.40;1.00
296;DHT22;132;48.770;9.200;2023-03-02T15:48:27;9.40;1.00
296;DHT22;132;48.770;9.200;2023-03-02T15:50:56;9.40;1.00
296;DHT22;132;48.770;9.200;2023-03-02T15:53:22;9.30;1.00
296;DHT22;132;48.770;9.200;2023-03-02T15:55:48;8.60;1.00
296;DHT22;132;48.770;9.200;2023-03-02T15:58:15;9.60;1.00
296;DHT22;132;48.770;9.200;2023-03-02T16:00:43;9.10;1.00
296;DHT22;132;48.770;9.200;2023-03-02T16:03:10;9.30;1.00
296;DHT22;132;48.770;9.200;2023-03-02T16:05:37;8.90;1.00
296;DHT22;132;48.770;9.200;2023-03-02T16:08:04;8.90;1.00
296;DHT22;132;48.770;9.200;2023-03-02T16:10:30;8.90;1.00
296;DHT22;132;48.770;9.200;2023-03-02T16:13:01;8.90;1.00
296;DHT22;132;48.770;9.200;2023-03-02T16:15:27;9.50;1.00
296;DHT22;132;48.770;9.200;2023-03-02T16:17:54;8.60;1.00
296;DHT22;132;48.770;9.200;2023-03-02T16:20:20;8.60;1.00
296;DHT22;132;48.770;9.200;2023-03-02T16:22:47;8.40;1.00
296;DHT22;132;48.770;9.200;2023-03-02T16:25:13;8.50;1.00
296;DHT22;132;48.770;9.200;2023-03-02T16:27:40;8.50;1.00
296;DHT22;132;48.770;9.200;2023-03-02T16:30:10;8.40;1.00
296;DHT22;132;48.770;9.200;2023-03-02T16:32:36;8.40;1.00
296;DHT22;132;48.770;9.200;2023-03-02T16:35:03;8.30;1.00
296;DHT22;132;48.770;9.200;2023-03-02T16:37:30;8.30;1.00
296;DHT22;132;48.770;9.200;2023-03-02T16:39:57;8.50;1.00
296;DHT22;132;48.770;9.200;2023-03-02T16:42:23;7.70;1.00
296;DHT22;132;48.770;9.200;2023-03-02T16:44:49;8.30;1.00
296;DHT22;132;48.770;9.200;2023-03-02T16:47:16;8.80;1.00
296;DHT22;132;48.770;9.200;2023-03-02T16:49:42;8.50;1.00
296;DHT22;132;48.770;9.200;2023-03-02T16:52:10;8.00;1.00
296;DHT22;132;48.770;9.200;2023-03-02T16:54:36;8.20;1.00
296;DHT22;132;48.770;9.200;2023-03-02T16:57:03;7.70;1.00
296;DHT22;132;48.770;9.200;2023-03-02T16:59:29;7.60;1.00
296;DHT22;132;48.770;9.200;2023-03-02T17:01:55;7.70;1.00
296;DHT22;132;48.770;9.200;2023-03-02T17:04:22;7.70;1.00
296;DHT22;132;48.770;9.200;2023-03-02T17:06:49;7.70;1.00
296;DHT22;132;48.770;9.200;2023-03-02T17:09:16;7.60;1.00
296;DHT22;132;48.770;9.200;2023-03-02T17:11:42;7.50;1.00
296;DHT22;132;48.770;9.200;2023-03-02T17:14:09;7.60;1.00
296;DHT22;132;48.770;9.200;2023-03-02T17:16:36;7.50;1.00
296;DHT22;132;48.770;9.200;2023-03-02T17:19:02;7.30;1.00
296;DHT22;132;48.770;9.200;2023-03-02T17:21:29;7.50;1.00
296;DHT22;132;48.770;9.200;2023-03-02T17:23:55;7.50;1.00
296;DHT22;132;48.770;9.200;2023-03-02T17:26:21;7.50;1.00
296;DHT22;132;48.770;9.200;2023-03-02T17:28:48;7.50;1.00
296;DHT22;132;48.770;9.200;2023-03-02T17:31:14;7.40;1.00
296;DHT22;132;48.770;9.200;2023-03-02T17:33:40;7.40;1.00
296;DHT22;132;48.770;9.200;2023-03-02T17:36:09;8.10;1.00
296;DHT22;132;48.770;9.200;2023-03-02T17:38:37;7.60;1.00
296;DHT22;132;48.770;9.200;2023-03-02T17:41:05;7.70;1.00
296;DHT22;132;48.770;9.200;2023-03-02T17:43:33;7.60;1.00
296;DHT22;132;48.770;9.200;2023-03-02T17:46:17;7.40;1.00
296;DHT22;132;48.770;9.200;2023-03-02T17:48:47;7.50;1.00
296;DHT22;132;48.770;9.200;2023-03-02T17:51:14;7.90;1.00
296;DHT22;132;48.770;9.200;2023-03-02T17:53:42;7.40;1.00
296;DHT22;132;48.770;9.200;2023-03-02T17:56:09;7.30;1.00
296;DHT22;132;48.770;9.200;2023-03-02T17:58:35;8.10;1.00
296;DHT22;132;48.770;9.200;2023-03-02T18:01:02;7.30;1.00
296;DHT22;132;48.770;9.200;2023-03-02T18:03:29;7.30;1.00
296;DHT22;132;48.770;9.200;2023-03-02T18:05:55;7.40;1.00
296;DHT22;132;48.770;9.200;2023-03-02T18:08:22;7.20;1.00
296;DHT22;132;48.770;9.200;2023-03-02T18:10:49;8.00;1.00
296;DHT22;132;48.770;9.200;2023-03-02T18:13:15;7.10;1.00
296;DHT22;132;48.770;9.200;2023-03-02T18:15:42;7.00;1.00
296;DHT22;132;48.770;9.200;2023-03-02T18:18:08;7.00;1.00
296;DHT22;132;48.770;9.200;2023-03-02T18:20:35;7.00;1.00
296;DHT22;132;48.770;9.200;2023-03-02T18:23:01;6.60;1.00
296;DHT22;132;48.770;9.200;2023-03-02T18:25:28;6.60;1.00
296;DHT22;132;48.770;9.200;2023-03-02T18:27:54;7.10;1.00